Time;durP1;ratioP1;P1;durP2;ratioP2;P2;SDS_P1;SDS_P2;PMS_P1;PMS_P2;Temp;Humidity;BMP_temperature;BMP_pressure;BME280_temperature;BME280_humidity;BME280_pressure;Samples;Min_cycle;Max_cycle;Signal;HPM_P1;HPM_P2
2021/07/04 00:01:08;;;;;;;94.97;49.43;;;21.40;84.90;;;;;;4997869;28;20290;-85
2021/07/04 00:03:34;;;;;;;92.33;47.60;;;21.30;85.50;;;;;;4980847;28;20440;-85
2021/07/04 00:06:00;;;;;;;99.50;49.67;;;21.20;85.70;;;;;;4999394;28;20171;-85
2021/07/04 00:08:26;;;;;;;95.13;45.97;;;21.20;85.80;;;;;;4980511;28;20262;-85
2021/07/04 00:11:04;;;;;;;99.77;51.70;;;21.30;85.80;;;;;;4979815;28;20443;-85
2021/07/04 00:13:32;;;;;;;104.20;52.20;;;21.50;85.10;;;;;;4997396;28;20406;-85
2021/07/04 00:15:58;;;;;;;98.25;49.83;;;21.60;84.10;;;;;;4982268;28;20206;-87
2021/07/04 00:18:27;;;;;;;103.30;51.58;;;21.40;84.20;;;;;;5005923;28;20193;-88
2021/07/04 00:20:54;;;;;;;100.32;51.78;;;21.30;84.60;;;;;;5003235;28;20211;-85
2021/07/04 00:23:20;;;;;;;115.85;55.30;;;21.40;84.90;;;;;;4998594;28;20183;-85
2021/07/04 00:25:48;;;;;;;119.55;57.95;;;21.30;85.00;;;;;;4998092;28;20199;-85
2021/07/04 00:28:13;;;;;;;114.30;53.65;;;21.30;85.10;;;;;;4980753;28;20187;-85
2021/07/04 00:30:40;;;;;;;126.30;55.40;;;21.20;85.10;;;;;;4979652;28;20191;-85
2021/07/04 00:33:06;;;;;;;124.80;56.47;;;21.20;85.10;;;;;;4997549;28;20201;-85
2021/07/04 00:35:32;;;;;;;108.45;54.50;;;21.20;85.00;;;;;;4979634;28;20418;-85
2021/07/04 00:37:59;;;;;;;112.50;53.25;;;21.10;85.00;;;;;;4997673;28;20183;-85
2021/07/04 00:40:26;;;;;;;110.90;54.60;;;21.10;84.90;;;;;;4996937;28;20202;-86
2021/07/04 00:42:52;;;;;;;136.65;63.25;;;21.10;84.80;;;;;;4979666;28;20253;-85
2021/07/04 00:45:21;;;;;;;127.40;59.40;;;21.00;84.60;;;;;;4979640;28;20182;-86
2021/07/04 00:47:47;;;;;;;132.75;60.78;;;21.00;84.40;;;;;;4979148;28;20179;-86
2021/07/04 00:50:14;;;;;;;136.48;63.42;;;21.00;84.50;;;;;;4979108;28;20201;-86
2021/07/04 00:52:41;;;;;;;133.32;64.00;;;20.90;84.60;;;;;;4996740;28;20207;-86
2021/07/04 00:55:08;;;;;;;126.05;61.95;;;20.90;84.70;;;;;;4996535;28;20214;-86
2021/07/04 00:57:35;;;;;;;145.38;64.75;;;21.00;84.70;;;;;;4978990;28;20183;-86
2021/07/04 01:00:01;;;;;;;137.38;64.97;;;21.00;84.50;;;;;;4979714;28;20210;-86
2021/07/04 01:02:30;;;;;;;137.93;60.85;;;20.90;84.60;;;;;;4978506;28;20281;-85
2021/07/04 01:04:55;;;;;;;125.45;60.33;;;20.80;84.60;;;;;;4979303;28;20255;-86
2021/07/04 01:07:22;;;;;;;128.23;60.10;;;20.70;84.90;;;;;;4979895;28;20191;-86
2021/07/04 01:09:48;;;;;;;127.60;59.45;;;20.70;85.20;;;;;;4979038;28;20225;-86
2021/07/04 01:12:14;;;;;;;128.10;59.03;;;20.70;85.30;;;;;;4978414;28;20199;-86
2021/07/04 01:14:39;;;;;;;128.63;58.97;;;20.70;85.30;;;;;;4979576;28;20183;-86
2021/07/04 01:17:05;;;;;;;131.67;58.27;;;20.80;85.10;;;;;;4996799;28;20172;-86
2021/07/04 01:19:31;;;;;;;118.20;60.35;;;20.90;84.60;;;;;;4978291;28;20183;-86
2021/07/04 01:21:57;;;;;;;124.40;59.30;;;20.80;84.20;;;;;;4995213;28;20223;-86
2021/07/04 01:24:24;;;;;;;119.22;58.10;;;20.60;84.60;;;;;;4998031;28;20683;-86
2021/07/04 01:26:51;;;;;;;113.22;58.50;;;20.60;84.80;;;;;;4994842;28;20186;-86
2021/07/04 01:29:18;;;;;;;119.03;58.65;;;20.50;85.30;;;;;;4978966;28;20245;-86
2021/07/04 01:31:44;;;;;;;118.25;57.83;;;20.40;85.60;;;;;;4978348;28;20576;-85
2021/07/04 01:34:10;;;;;;;120.85;62.83;;;20.40;86.00;;;;;;4978916;28;20190;-86
2021/07/04 01:36:37;;;;;;;123.57;57.70;;;20.30;86.10;;;;;;4978689;28;20187;-86
2021/07/04 01:39:05;;;;;;;132.27;61.67;;;20.30;86.20;;;;;;4978367;28;20193;-86
2021/07/04 01:41:33;;;;;;;139.90;62.50;;;20.20;86.30;;;;;;4996081;28;20218;-86
2021/07/04 01:43:58;;;;;;;151.13;64.78;;;20.20;86.50;;;;;;4979029;28;20179;-86
2021/07/04 01:46:24;;;;;;;142.63;62.00;;;20.20;86.80;;;;;;4996203;28;20701;-86
2021/07/04 01:48:50;;;;;;;140.80;63.47;;;20.20;86.80;;;;;;4978142;28;20179;-86
2021/07/04 01:51:16;;;;;;;161.40;66.93;;;20.20;86.60;;;;;;4995251;28;20194;-86
2021/07/04 01:53:42;;;;;;;148.05;67.18;;;20.10;86.80;;;;;;4978814;28;20179;-86
2021/07/04 01:56:08;;;;;;;148.60;67.50;;;20.10;87.00;;;;;;4979593;28;20187;-86
2021/07/04 01:58:35;;;;;;;149.70;63.88;;;20.00;87.10;;;;;;4979325;28;20442;-86
2021/07/04 02:01:03;;;;;;;132.82;63.47;;;20.00;87.30;;;;;;4979599;28;20273;-86
2021/07/04 02:03:29;;;;;;;133.88;59.78;;;20.00;87.50;;;;;;4981266;28;20853;-86
2021/07/04 02:05:55;;;;;;;130.60;59.50;;;19.90;87.50;;;;;;4981316;28;20215;-86
2021/07/04 02:08:21;;;;;;;126.55;59.53;;;19.90;87.60;;;;;;4979702;28;20175;-86
2021/07/04 02:10:46;;;;;;;113.63;53.63;;;19.90;87.60;;;;;;4980441;28;20183;-86
2021/07/04 02:13:12;;;;;;;115.90;53.90;;;20.00;87.60;;;;;;4981412;28;20179;-85
2021/07/04 02:15:40;;;;;;;125.03;55.03;;;19.90;87.50;;;;;;4981354;28;20183;-86
2021/07/04 02:18:09;;;;;;;112.07;55.75;;;20.00;87.60;;;;;;4980918;28;20419;-86
2021/07/04 02:20:38;;;;;;;116.13;57.15;;;20.00;87.50;;;;;;4997588;28;20207;-86
2021/07/04 02:23:11;;;;;;;126.75;59.63;;;20.10;87.50;;;;;;4983292;28;20175;-86
2021/07/04 02:25:38;;;;;;;120.03;57.25;;;20.20;87.20;;;;;;4983487;28;20215;-84
2021/07/04 02:28:05;;;;;;;118.63;56.65;;;20.30;86.40;;;;;;4987728;28;20266;-85
2021/07/04 02:30:32;;;;;;;125.38;56.58;;;20.20;86.10;;;;;;4982354;28;20194;-85
2021/07/04 02:33:02;;;;;;;127.40;57.90;;;20.30;86.00;;;;;;4978788;28;20292;-85
2021/07/04 02:35:30;;;;;;;114.70;55.80;;;20.40;85.50;;;;;;4996214;28;20647;-86
2021/07/04 02:37:56;;;;;;;115.72;57.05;;;20.40;85.10;;;;;;4979285;28;20187;-85
2021/07/04 02:40:23;;;;;;;134.82;56.65;;;20.20;85.20;;;;;;4982946;28;20211;-84
2021/07/04 02:42:49;;;;;;;113.68;55.10;;;20.20;85.60;;;;;;4985123;28;20222;-85
2021/07/04 02:45:16;;;;;;;114.97;53.88;;;20.20;85.70;;;;;;4984822;28;20186;-85
2021/07/04 02:47:41;;;;;;;115.07;51.30;;;20.10;86.00;;;;;;4981597;28;20225;-85
2021/07/04 02:50:09;;;;;;;91.10;48.27;;;20.00;86.10;;;;;;4995103;28;20258;-85
2021/07/04 02:52:35;;;;;;;83.05;46.63;;;20.00;86.10;;;;;;4977949;28;20700;-85
2021/07/04 02:55:01;;;;;;;87.93;46.00;;;20.00;86.10;;;;;;4979671;28;20183;-86
2021/07/04 02:57:27;;;;;;;86.68;45.58;;;20.00;86.00;;;;;;4995091;28;20183;-86
2021/07/04 02:59:53;;;;;;;75.73;43.50;;;20.00;85.90;;;;;;4995010;28;20179;-86
2021/07/04 03:02:20;;;;;;;80.90;42.77;;;19.90;85.90;;;;;;4976858;28;20235;-86
2021/07/04 03:04:46;;;;;;;75.22;43.55;;;19.90;85.90;;;;;;4977360;28;20190;-86
2021/07/04 03:07:12;;;;;;;67.75;39.92;;;19.90;86.00;;;;;;4994819;28;20543;-86
2021/07/04 03:09:39;;;;;;;64.80;38.00;;;20.00;85.90;;;;;;4994625;28;20195;-86
2021/07/04 03:12:06;;;;;;;67.25;35.53;;;20.10;84.80;;;;;;4976863;28;20203;-86
2021/07/04 03:14:32;;;;;;;69.40;37.08;;;20.20;84.40;;;;;;4977164;28;20215;-86
2021/07/04 03:16:58;;;;;;;70.25;38.75;;;20.30;83.70;;;;;;4977304;28;20183;-86
2021/07/04 03:19:24;;;;;;;57.33;35.57;;;20.10;84.00;;;;;;4978237;28;20236;-86
2021/07/04 03:21:50;;;;;;;56.30;35.03;;;20.10;84.40;;;;;;4979952;28;20513;-86
2021/07/04 03:24:15;;;;;;;61.37;35.50;;;20.10;84.70;;;;;;4998057;28;20406;-86
2021/07/04 03:26:41;;;;;;;59.73;35.87;;;20.00;84.80;;;;;;4997836;28;20667;-86
2021/07/04 03:29:07;;;;;;;61.03;34.43;;;20.00;84.80;;;;;;4981055;28;20179;-86
2021/07/04 03:31:33;;;;;;;53.37;34.17;;;20.00;84.80;;;;;;4983466;28;20434;-86
2021/07/04 03:33:59;;;;;;;60.47;36.00;;;20.00;84.70;;;;;;4982035;28;20190;-84
2021/07/04 03:36:25;;;;;;;57.53;35.17;;;20.00;84.70;;;;;;4984967;28;20671;-84
2021/07/04 03:38:50;;;;;;;66.43;34.70;;;20.20;84.50;;;;;;4982388;28;20179;-85
2021/07/04 03:41:17;;;;;;;59.40;34.10;;;20.40;83.50;;;;;;4980262;28;20470;-84
2021/07/04 03:43:43;;;;;;;53.53;31.38;;;20.60;83.00;;;;;;4982072;28;20179;-86
2021/07/04 03:46:08;;;;;;;52.77;32.70;;;20.50;82.00;;;;;;4980523;28;20183;-85
2021/07/04 03:48:34;;;;;;;53.53;32.20;;;20.30;82.40;;;;;;4980497;28;20480;-86
2021/07/04 03:51:01;;;;;;;58.87;33.10;;;20.10;83.30;;;;;;4980126;28;20203;-85
2021/07/04 03:53:30;;;;;;;50.03;33.85;;;20.10;84.00;;;;;;4980247;28;20286;-85
2021/07/04 03:55:55;;;;;;;50.65;30.02;;;20.00;84.20;;;;;;4997490;28;20286;-85
2021/07/04 03:58:21;;;;;;;53.63;32.10;;;20.00;84.40;;;;;;4996236;28;20215;-86
2021/07/04 04:00:47;;;;;;;49.80;31.80;;;20.00;84.50;;;;;;4979651;28;20360;-85
2021/07/04 04:03:12;;;;;;;52.37;31.83;;;20.00;84.60;;;;;;4996208;28;20265;-85
2021/07/04 04:05:38;;;;;;;44.50;29.07;;;20.00;84.70;;;;;;4980299;28;20183;-85
2021/07/04 04:08:06;;;;;;;44.60;28.07;;;20.20;84.40;;;;;;4996234;28;20175;-85
2021/07/04 04:10:34;;;;;;;41.78;27.88;;;20.30;84.00;;;;;;4997424;28;20186;-86
2021/07/04 04:13:01;;;;;;;49.45;28.13;;;20.30;83.90;;;;;;4980279;28;20187;-85
2021/07/04 04:15:26;;;;;;;44.80;27.25;;;20.20;84.00;;;;;;4980167;28;20183;-86
2021/07/04 04:17:55;;;;;;;41.10;27.00;;;20.20;84.10;;;;;;4980380;28;20650;-86
2021/07/04 04:20:20;;;;;;;36.90;25.55;;;20.20;84.10;;;;;;4979863;28;20206;-85
2021/07/04 04:22:46;;;;;;;39.57;25.43;;;20.30;84.00;;;;;;4980595;28;20199;-85
2021/07/04 04:25:12;;;;;;;40.57;26.33;;;20.30;84.00;;;;;;4997792;28;20167;-85
2021/07/04 04:27:37;;;;;;;38.50;23.40;;;20.40;83.80;;;;;;4980594;28;20232;-85
2021/07/04 04:30:05;;;;;;;31.73;23.33;;;20.50;83.60;;;;;;4997673;28;20193;-86
2021/07/04 04:32:31;;;;;;;32.97;22.27;;;20.50;83.20;;;;;;4980503;28;20191;-86
2021/07/04 04:34:56;;;;;;;27.33;20.83;;;20.50;83.00;;;;;;4986277;28;20183;-85
2021/07/04 04:37:22;;;;;;;31.13;19.00;;;20.70;82.70;;;;;;4982996;28;20538;-86
2021/07/04 04:39:48;;;;;;;25.23;19.10;;;20.80;82.20;;;;;;4982637;28;20274;-85
2021/07/04 04:42:13;;;;;;;23.77;17.67;;;20.80;81.70;;;;;;4982353;28;20202;-85
2021/07/04 04:44:39;;;;;;;23.37;16.50;;;20.90;81.40;;;;;;4999175;28;20592;-86
2021/07/04 04:47:06;;;;;;;24.50;18.02;;;20.90;81.00;;;;;;4981806;28;20538;-85
2021/07/04 04:49:33;;;;;;;21.67;15.05;;;20.90;80.60;;;;;;4981495;28;20183;-86
2021/07/04 04:51:58;;;;;;;22.55;17.50;;;21.00;80.30;;;;;;4980650;28;20203;-86
2021/07/04 04:54:24;;;;;;;22.97;15.57;;;20.90;80.30;;;;;;4981370;28;20193;-85
2021/07/04 04:56:50;;;;;;;23.73;16.70;;;21.00;80.40;;;;;;4981537;28;20179;-85
2021/07/04 04:59:16;;;;;;;21.63;15.23;;;21.00;80.20;;;;;;4981929;28;20187;-85
2021/07/04 05:01:41;;;;;;;21.73;15.57;;;21.00;80.10;;;;;;4980167;28;20215;-85
2021/07/04 05:04:09;;;;;;;22.47;16.57;;;21.00;80.20;;;;;;4996858;28;20160;-86
2021/07/04 05:06:35;;;;;;;20.80;14.73;;;21.10;80.20;;;;;;4979714;28;20179;-86
2021/07/04 05:09:01;;;;;;;25.80;15.88;;;21.10;80.20;;;;;;4996994;28;20206;-85
2021/07/04 05:11:27;;;;;;;20.73;16.73;;;21.10;80.20;;;;;;4995066;28;20199;-85
2021/07/04 05:13:53;;;;;;;19.57;15.00;;;21.30;80.00;;;;;;4979710;28;20187;-85
2021/07/04 05:16:19;;;;;;;19.70;15.13;;;21.30;79.40;;;;;;4979377;28;20191;-85
2021/07/04 05:18:45;;;;;;;23.90;16.73;;;21.40;79.20;;;;;;4978975;28;20269;-86
2021/07/04 05:21:10;;;;;;;25.43;17.30;;;21.70;77.60;;;;;;4978202;28;20525;-85
2021/07/04 05:23:36;;;;;;;27.50;17.00;;;21.80;77.00;;;;;;4979231;28;20175;-85
2021/07/04 05:26:02;;;;;;;21.03;14.93;;;21.80;76.60;;;;;;4996969;28;20260;-84
2021/07/04 05:28:29;;;;;;;20.53;16.00;;;21.90;76.70;;;;;;4996467;28;20186;-85
2021/07/04 05:30:55;;;;;;;20.53;15.43;;;22.10;75.80;;;;;;4978394;28;20470;-86
2021/07/04 05:33:22;;;;;;;19.70;15.37;;;22.20;75.20;;;;;;4978629;28;20830;-85
2021/07/04 05:35:48;;;;;;;16.27;13.53;;;22.40;75.20;;;;;;4978914;28;20434;-85
2021/07/04 05:38:22;;;;;;;14.63;12.27;;;23.10;74.80;;;;;;4996489;28;20422;-85
2021/07/04 05:40:49;;;;;;;18.43;12.53;;;24.30;72.40;;;;;;4978847;28;20519;-86
2021/07/04 05:43:15;;;;;;;13.30;11.63;;;25.00;68.00;;;;;;4995106;28;20414;-86
2021/07/04 05:45:41;;;;;;;14.03;11.40;;;26.30;64.80;;;;;;4978628;28;20426;-86
2021/07/04 05:48:07;;;;;;;11.57;10.40;;;27.70;60.60;;;;;;4995825;28;20413;-86
2021/07/04 05:50:33;;;;;;;10.93;9.83;;;28.90;54.70;;;;;;4994961;28;20433;-87
2021/07/04 05:52:59;;;;;;;10.60;9.40;;;29.30;50.80;;;;;;4994179;28;20401;-86
2021/07/04 05:55:25;;;;;;;11.37;10.23;;;29.50;50.40;;;;;;4978158;28;20432;-86
2021/07/04 05:57:51;;;;;;;11.10;10.10;;;30.10;48.90;;;;;;4995698;28;20440;-86
2021/07/04 06:00:17;;;;;;;9.60;8.67;;;30.90;46.80;;;;;;4977244;28;20207;-86
2021/07/04 06:02:43;;;;;;;10.93;9.83;;;31.80;45.10;;;;;;4995168;28;20291;-85
2021/07/04 06:05:09;;;;;;;10.53;9.60;;;32.00;43.90;;;;;;4978491;28;20458;-85
2021/07/04 06:07:35;;;;;;;9.90;8.67;;;32.70;43.30;;;;;;4978241;28;20183;-85
2021/07/04 06:10:03;;;;;;;9.50;8.60;;;33.50;40.70;;;;;;4977979;28;20426;-85
2021/07/04 06:12:29;;;;;;;7.20;6.60;;;34.40;38.80;;;;;;4977494;28;20462;-86
2021/07/04 06:14:54;;;;;;;7.80;7.00;;;35.10;37.10;;;;;;4977938;28;20422;-85
2021/07/04 06:17:20;;;;;;;8.40;7.70;;;35.50;34.90;;;;;;4995411;28;20449;-86
2021/07/04 06:19:46;;;;;;;8.60;7.80;;;35.70;34.30;;;;;;4996260;28;20626;-85
2021/07/04 06:22:11;;;;;;;8.20;7.50;;;35.90;33.30;;;;;;4978334;28;20544;-86
2021/07/04 06:24:37;;;;;;;8.07;7.37;;;35.70;33.40;;;;;;4977828;28;20179;-86
2021/07/04 06:27:03;;;;;;;8.67;7.87;;;35.50;33.80;;;;;;4977748;28;20175;-86
2021/07/04 06:29:29;;;;;;;7.87;7.17;;;35.30;34.20;;;;;;4995215;28;20194;-86
2021/07/04 06:31:55;;;;;;;7.67;7.03;;;35.20;33.80;;;;;;4977079;28;20496;-87
2021/07/04 06:34:20;;;;;;;7.40;6.70;;;35.00;34.00;;;;;;4995166;28;20172;-87
2021/07/04 06:36:46;;;;;;;9.80;7.00;;;34.90;33.20;;;;;;4977655;28;20190;-87
2021/07/04 06:39:12;;;;;;;6.60;6.00;;;34.80;33.80;;;;;;4977730;28;20519;-87
2021/07/04 06:41:37;;;;;;;6.53;5.97;;;34.50;34.30;;;;;;4977756;28;20285;-87
2021/07/04 06:44:03;;;;;;;7.40;6.30;;;34.20;35.00;;;;;;4978239;28;20175;-87
2021/07/04 06:46:31;;;;;;;6.90;5.57;;;33.20;35.80;;;;;;4977703;28;20179;-87
2021/07/04 06:48:57;;;;;;;7.03;4.93;;;32.40;37.30;;;;;;4977479;28;20926;-87
2021/07/04 06:51:22;;;;;;;6.87;6.30;;;31.20;39.40;;;;;;4977146;28;20449;-87
2021/07/04 06:53:49;;;;;;;6.33;5.83;;;30.60;41.40;;;;;;4979389;28;20286;-87
2021/07/04 06:56:15;;;;;;;7.00;6.20;;;30.50;43.70;;;;;;4998966;28;20202;-87
2021/07/04 06:58:41;;;;;;;5.40;4.90;;;30.60;43.20;;;;;;4983381;28;20462;-85
2021/07/04 07:01:08;;;;;;;5.43;4.57;;;30.60;42.90;;;;;;4998947;28;20462;-85
2021/07/04 07:03:35;;;;;;;5.63;5.00;;;30.60;41.70;;;;;;4981630;28;20277;-85
2021/07/04 07:06:01;;;;;;;5.70;5.20;;;30.20;43.00;;;;;;4982000;28;20425;-85
2021/07/04 07:08:26;;;;;;;9.13;4.40;;;29.80;42.80;;;;;;4981642;28;20410;-86
2021/07/04 07:10:52;;;;;;;5.60;4.67;;;29.40;43.40;;;;;;4981355;28;20215;-86
2021/07/04 07:13:18;;;;;;;6.20;4.17;;;29.70;43.60;;;;;;4981336;28;20242;-86
2021/07/04 07:15:45;;;;;;;4.77;4.37;;;30.00;43.20;;;;;;4999192;28;20195;-86
2021/07/04 07:18:11;;;;;;;3.80;3.50;;;30.00;42.50;;;;;;4984137;28;20603;-86
2021/07/04 07:20:37;;;;;;;2.83;2.63;;;29.30;42.90;;;;;;4983282;28;20876;-86
2021/07/04 07:23:03;;;;;;;3.50;3.13;;;29.10;44.40;;;;;;4983379;28;20897;-86
2021/07/04 07:25:31;;;;;;;3.43;2.83;;;29.20;44.80;;;;;;4982954;28;20449;-86
2021/07/04 07:27:57;;;;;;;4.00;3.60;;;29.10;45.60;;;;;;4983892;28;20979;-86
2021/07/04 07:30:22;;;;;;;3.90;3.60;;;29.20;45.80;;;;;;4982779;28;20401;-86
2021/07/04 07:32:48;;;;;;;3.57;3.13;;;29.30;45.40;;;;;;4982072;28;20222;-86
2021/07/04 07:35:14;;;;;;;4.00;3.03;;;29.00;46.30;;;;;;4981510;28;20182;-86
2021/07/04 07:37:40;;;;;;;3.60;3.30;;;28.90;45.70;;;;;;4998081;28;20188;-86
2021/07/04 07:40:07;;;;;;;4.33;3.93;;;29.20;46.10;;;;;;4981437;28;20517;-86
2021/07/04 07:42:34;;;;;;;3.30;3.10;;;29.50;44.90;;;;;;4996749;28;20970;-86
2021/07/04 07:45:02;;;;;;;3.83;2.70;;;29.60;43.70;;;;;;4983087;28;20444;-86
2021/07/04 07:47:27;;;;;;;3.60;3.37;;;29.30;42.50;;;;;;4997051;28;20418;-86
2021/07/04 07:49:53;;;;;;;3.03;2.73;;;29.20;43.60;;;;;;4997227;28;20447;-86
2021/07/04 07:52:19;;;;;;;3.40;3.10;;;29.10;44.90;;;;;;4996486;28;20207;-86
2021/07/04 07:54:44;;;;;;;4.30;3.93;;;29.20;44.40;;;;;;4996232;28;20218;-86
2021/07/04 07:57:10;;;;;;;3.60;3.30;;;28.90;43.50;;;;;;5013179;28;20222;-86
2021/07/04 07:59:36;;;;;;;3.70;3.40;;;29.00;44.50;;;;;;4996450;28;20197;-86
2021/07/04 08:02:02;;;;;;;4.10;3.10;;;28.80;44.00;;;;;;5012434;28;20225;-86
2021/07/04 08:04:28;;;;;;;4.77;4.00;;;28.50;45.30;;;;;;4996507;28;20255;-86
2021/07/04 08:06:53;;;;;;;5.20;3.73;;;28.60;45.80;;;;;;4996778;28;20427;-86
2021/07/04 08:09:19;;;;;;;4.03;3.73;;;28.40;46.40;;;;;;4998861;28;20246;-86
2021/07/04 08:11:45;;;;;;;5.20;4.70;;;28.20;47.60;;;;;;4997058;28;20203;-86
2021/07/04 08:14:11;;;;;;;4.73;4.33;;;28.30;46.90;;;;;;4997218;28;20187;-86
2021/07/04 08:16:36;;;;;;;4.93;4.53;;;27.70;46.10;;;;;;4999562;28;20634;-86
2021/07/04 08:19:02;;;;;;;4.40;4.00;;;27.50;47.20;;;;;;4997665;28;20436;-86
2021/07/04 08:21:29;;;;;;;4.20;3.77;;;27.00;49.30;;;;;;4997616;28;20267;-86
2021/07/04 08:23:56;;;;;;;5.60;5.10;;;26.60;50.00;;;;;;4996680;28;20421;-86
2021/07/04 08:26:23;;;;;;;5.93;3.90;;;26.40;51.00;;;;;;4996642;28;20426;-86
2021/07/04 08:28:50;;;;;;;5.60;4.83;;;26.10;51.60;;;;;;4996432;28;20474;-86
2021/07/04 08:31:16;;;;;;;5.00;3.70;;;26.60;51.60;;;;;;4995877;28;20471;-85
2021/07/04 08:33:41;;;;;;;5.13;3.53;;;26.80;50.00;;;;;;4998003;28;20885;-84
2021/07/04 08:36:07;;;;;;;6.90;4.43;;;26.90;49.00;;;;;;5013221;28;20926;-84
2021/07/04 08:38:33;;;;;;;5.47;4.47;;;27.20;49.10;;;;;;4996341;28;20559;-86
2021/07/04 08:40:59;;;;;;;4.97;4.47;;;27.30;48.20;;;;;;4996416;28;20210;-86
2021/07/04 08:43:37;;;;;;;3.77;3.47;;;27.10;48.70;;;;;;4996224;28;20417;-86
2021/07/04 08:46:09;;;;;;;5.07;4.33;;;26.80;48.90;;;;;;4991770;28;20178;-86
2021/07/04 08:48:36;;;;;;;4.47;4.13;;;26.40;50.10;;;;;;4985852;28;20446;-85
2021/07/04 08:51:03;;;;;;;4.70;4.20;;;26.20;51.30;;;;;;4980255;28;20808;-87
2021/07/04 08:53:29;;;;;;;4.83;4.43;;;26.10;51.60;;;;;;4997796;28;20895;-86
2021/07/04 08:55:55;;;;;;;5.50;3.97;;;26.50;50.50;;;;;;4980089;28;20425;-87
2021/07/04 08:58:23;;;;;;;5.70;4.33;;;26.60;49.70;;;;;;5000483;28;20503;-86
2021/07/04 09:01:10;;;;;;;5.70;4.47;;;26.60;49.40;;;;;;4981414;28;20210;-86
2021/07/04 09:03:36;;;;;;;4.27;3.97;;;26.60;49.50;;;;;;4999723;28;20433;-85
2021/07/04 09:06:02;;;;;;;4.90;4.40;;;26.60;50.00;;;;;;4980281;28;20419;-85
2021/07/04 09:08:28;;;;;;;5.33;4.83;;;26.80;49.70;;;;;;4998916;28;20583;-85
2021/07/04 09:11:11;;;;;;;4.50;4.10;;;26.80;49.70;;;;;;4997576;28;20436;-85
2021/07/04 09:13:39;;;;;;;3.97;3.67;;;26.80;49.90;;;;;;4997806;28;20178;-86
2021/07/04 09:16:08;;;;;;;4.07;3.83;;;26.80;50.20;;;;;;4980497;28;20799;-87
2021/07/04 09:18:38;;;;;;;4.20;3.80;;;26.60;50.00;;;;;;4981340;28;20432;-87
2021/07/04 09:21:23;;;;;;;4.40;4.00;;;26.60;50.30;;;;;;4981331;28;20466;-86
2021/07/04 09:23:50;;;;;;;5.33;4.00;;;26.60;50.00;;;;;;4984432;28;20407;-86
2021/07/04 09:26:55;;;;;;;4.00;3.60;;;26.60;50.30;;;;;;5015195;28;20427;-86
2021/07/04 09:29:53;;;;;;;3.80;3.50;;;26.70;50.30;;;;;;4998644;28;20420;-86
2021/07/04 09:32:29;;;;;;;3.80;3.50;;;26.70;50.10;;;;;;5016762;28;20452;-86
2021/07/04 09:35:10;;;;;;;3.63;3.30;;;26.80;50.00;;;;;;4999543;28;20463;-86
2021/07/04 09:37:44;;;;;;;4.10;3.80;;;26.80;50.20;;;;;;5017351;28;20410;-86
2021/07/04 09:40:20;;;;;;;4.13;3.80;;;26.60;51.00;;;;;;5000019;28;20844;-86
2021/07/04 09:43:07;;;;;;;4.10;3.80;;;26.60;50.30;;;;;;4997396;28;20440;-86
2021/07/04 09:45:47;;;;;;;5.13;4.07;;;26.30;50.10;;;;;;5015027;28;20414;-85
2021/07/04 09:48:29;;;;;;;8.23;4.13;;;26.20;51.70;;;;;;4998762;28;20425;-85
2021/07/04 09:50:57;;;;;;;4.20;3.80;;;26.10;51.60;;;;;;4986581;28;20449;-86
2021/07/04 09:53:50;;;;;;;4.33;4.03;;;26.30;51.00;;;;;;4990614;28;20426;-86
2021/07/04 09:56:20;;;;;;;3.60;3.30;;;26.30;51.20;;;;;;5002685;28;20465;-86
2021/07/04 09:58:57;;;;;;;4.43;4.00;;;26.10;51.40;;;;;;4984206;28;20485;-86
2021/07/04 10:01:38;;;;;;;4.87;3.70;;;25.70;51.40;;;;;;5002284;28;20520;-87
2021/07/04 10:04:08;;;;;;;4.40;4.00;;;25.50;53.20;;;;;;4981761;28;20505;-86
2021/07/04 10:06:51;;;;;;;6.27;3.87;;;25.20;53.80;;;;;;4981343;28;20921;-86
2021/07/04 10:09:18;;;;;;;4.80;4.20;;;24.90;55.30;;;;;;4981781;28;20414;-86
2021/07/04 10:11:44;;;;;;;4.13;3.83;;;25.00;55.50;;;;;;4979299;28;20984;-86
2021/07/04 10:14:10;;;;;;;4.43;4.00;;;25.20;54.70;;;;;;4996882;28;20418;-86
2021/07/04 10:16:37;;;;;;;4.67;4.13;;;25.20;54.60;;;;;;4994852;28;20414;-86
2021/07/04 10:19:04;;;;;;;5.53;5.03;;;24.80;55.60;;;;;;4978488;28;20453;-87
2021/07/04 10:21:34;;;;;;;7.00;5.13;;;24.90;55.20;;;;;;4978964;28;20992;-85
2021/07/04 10:24:00;;;;;;;4.90;4.50;;;24.80;55.70;;;;;;4984465;28;20494;-85
2021/07/04 10:26:27;;;;;;;5.17;4.67;;;24.80;55.20;;;;;;4996665;28;20419;-85
2021/07/04 10:28:58;;;;;;;5.43;4.97;;;24.90;55.50;;;;;;4999117;28;20425;-84
2021/07/04 10:31:25;;;;;;;5.13;4.73;;;24.70;55.80;;;;;;5001138;28;20569;-85
2021/07/04 10:34:12;;;;;;;6.23;4.90;;;24.90;55.90;;;;;;5001517;28;20938;-85
2021/07/04 10:36:57;;;;;;;6.20;5.60;;;24.90;55.70;;;;;;5001818;28;20492;-85
2021/07/04 10:39:24;;;;;;;5.90;5.40;;;24.90;56.10;;;;;;5002652;28;20426;-85
2021/07/04 10:42:02;;;;;;;11.00;7.60;;;24.70;56.10;;;;;;5003704;28;20484;-88
2021/07/04 10:44:39;;;;;;;13.10;8.23;;;24.10;59.00;;;;;;5001909;28;20421;-86
2021/07/04 10:47:33;;;;;;;15.17;11.57;;;23.80;67.20;;;;;;5001604;28;20953;-87
2021/07/04 10:50:15;;;;;;;18.07;12.37;;;23.10;74.30;;;;;;5002975;28;20413;-86
2021/07/04 10:52:43;;;;;;;19.77;14.60;;;22.50;78.90;;;;;;4989444;28;20453;-85
2021/07/04 10:55:34;;;;;;;22.70;14.50;;;22.10;81.50;;;;;;5002730;28;20964;-86
2021/07/04 10:58:04;;;;;;;17.93;13.23;;;21.60;82.40;;;;;;5001621;28;20450;-86
2021/07/04 11:00:39;;;;;;;30.10;16.85;;;21.40;84.30;;;;;;4991149;28;20457;-88
2021/07/04 11:03:07;;;;;;;25.40;16.80;;;21.20;85.30;;;;;;4992024;28;20202;-86
2021/07/04 11:05:37;;;;;;;30.30;19.85;;;20.90;86.70;;;;;;5006357;28;20497;-89
2021/07/04 11:08:04;;;;;;;34.50;16.50;;;20.70;88.00;;;;;;4988323;28;20177;-86
2021/07/04 11:10:37;;;;;;;21.38;15.18;;;20.40;88.40;;;;;;4989080;28;20215;-87
2021/07/04 11:13:09;;;;;;;27.65;16.45;;;20.10;89.00;;;;;;5007054;28;20647;-86
2021/07/04 11:15:39;;;;;;;28.10;17.55;;;20.00;90.50;;;;;;4985269;28;20187;-87
2021/07/04 11:18:06;;;;;;;27.55;20.50;;;20.00;92.20;;;;;;5001390;28;20187;-86
2021/07/04 11:20:52;;;;;;;34.20;22.88;;;20.00;93.20;;;;;;4983829;28;20211;-86
2021/07/04 11:23:27;;;;;;;6.63;3.10;;;20.10;94.70;;;;;;4983808;28;20209;-87
2021/07/04 11:25:57;;;;;;;4.05;1.55;;;19.10;88.60;;;;;;5000811;28;20178;-86
2021/07/04 11:28:31;;;;;;;3.83;1.80;;;17.70;88.30;;;;;;4983522;28;20523;-86
2021/07/04 11:31:06;;;;;;;23.77;2.42;;;17.90;91.30;;;;;;4983190;28;20206;-86
2021/07/04 11:33:36;;;;;;;7.65;1.98;;;17.80;92.40;;;;;;4999633;28;20175;-86
2021/07/04 11:36:03;;;;;;;3.20;1.70;;;17.90;93.40;;;;;;5001126;28;20305;-86
2021/07/04 11:38:33;;;;;;;4.20;1.70;;;17.90;94.00;;;;;;4983577;28;20179;-86
2021/07/04 11:41:00;;;;;;;3.25;1.75;;;17.80;94.30;;;;;;4978904;28;20214;-86
2021/07/04 11:43:28;;;;;;;3.45;1.83;;;17.70;94.70;;;;;;4980121;28;20178;-85
2021/07/04 11:46:03;;;;;;;3.15;1.50;;;17.50;94.60;;;;;;4980614;28;20187;-86
2021/07/04 11:49:06;;;;;;;1.85;1.52;;;17.50;94.60;;;;;;5009445;28;20171;-86
2021/07/04 11:51:52;;;;;;;6.32;3.03;;;17.50;94.80;;;;;;4981325;28;20308;-86
2021/07/04 11:54:24;;;;;;;8.20;3.88;;;17.50;95.20;;;;;;4980371;28;20561;-86
2021/07/04 11:56:55;;;;;;;12.32;4.53;;;17.50;95.50;;;;;;4980318;28;20183;-85
2021/07/04 11:59:27;;;;;;;11.18;6.00;;;17.50;95.90;;;;;;4980916;28;20186;-86
2021/07/04 12:02:01;;;;;;;12.43;6.05;;;17.60;96.30;;;;;;4980880;28;20760;-86
2021/07/04 12:04:48;;;;;;;16.65;7.60;;;17.60;96.70;;;;;;4983486;28;20222;-86
2021/07/04 12:07:15;;;;;;;14.82;7.40;;;17.70;97.00;;;;;;4981390;28;20705;-87
2021/07/04 12:09:45;;;;;;;21.17;8.18;;;17.70;97.20;;;;;;4997098;28;20179;-86
2021/07/04 12:12:23;;;;;;;14.63;8.43;;;17.70;97.70;;;;;;4979263;28;20203;-86
2021/07/04 12:14:56;;;;;;;14.65;8.65;;;17.80;98.20;;;;;;4981990;28;20186;-86
2021/07/04 12:17:31;;;;;;;17.80;9.48;;;17.90;98.80;;;;;;4980992;28;20183;-87
2021/07/04 12:20:06;;;;;;;18.60;8.90;;;18.00;99.20;;;;;;4980052;28;20187;-86
2021/07/04 12:23:00;;;;;;;14.15;8.32;;;18.20;99.90;;;;;;4980243;28;20233;-86
2021/07/04 12:25:26;;;;;;;17.52;9.05;;;18.40;99.90;;;;;;4979516;28;20178;-86
2021/07/04 12:27:54;;;;;;;22.07;9.90;;;18.60;99.90;;;;;;4979102;28;20180;-86
2021/07/04 12:30:33;;;;;;;25.08;12.93;;;18.50;99.90;;;;;;4961107;28;20419;-85
2021/07/04 12:33:05;;;;;;;24.70;14.40;;;18.60;99.90;;;;;;4979064;28;20180;-86
2021/07/04 12:35:31;;;;;;;32.60;15.45;;;18.60;99.90;;;;;;4963487;28;20191;-86
2021/07/04 12:38:03;;;;;;;23.37;14.57;;;18.60;99.90;;;;;;4963311;28;20678;-86
2021/07/04 12:40:35;;;;;;;30.33;13.30;;;18.70;99.90;;;;;;4979429;28;20219;-86